createdAt,value
2023-02-12T00:00:52.050Z,100767.38
2023-02-12T00:03:41.063Z,100761.67
2023-02-12T00:06:30.682Z,100762.02
2023-02-12T00:09:19.490Z,100763.09
2023-02-12T00:12:08.524Z,100757.06
2023-02-12T00:14:57.508Z,100755.30
2023-02-12T00:17:46.614Z,100750.08
2023-02-12T00:20:39.020Z,100749.45
2023-02-12T00:23:28.562Z,100751.08
2023-02-12T00:26:18.544Z,100742.30
2023-02-12T00:29:10.462Z,100745.80
2023-02-12T00:31:59.359Z,100742.46
2023-02-12T00:34:49.125Z,100741.11
2023-02-12T00:37:38.097Z,100741.66
2023-02-12T00:40:26.796Z,100738.90
2023-02-12T00:43:15.458Z,100736.04
2023-02-12T00:46:05.425Z,100731.78
2023-02-12T00:48:55.494Z,100735.27
2023-02-12T00:51:44.230Z,100730.60
2023-02-12T00:54:33.761Z,100736.23
2023-02-12T00:57:22.549Z,100731.32
2023-02-12T01:00:22.501Z,100729.52
2023-02-12T01:03:11.500Z,100728.76
2023-02-12T01:06:00.337Z,100726.39
2023-02-12T01:08:51.838Z,100737.61
2023-02-12T01:11:40.647Z,100735.14
2023-02-12T01:14:31.315Z,100734.44
2023-02-12T01:17:20.458Z,100732.77
2023-02-12T01:20:13.357Z,100729.72
2023-02-12T01:23:02.344Z,100726.62
2023-02-12T01:25:51.020Z,100725.69
2023-02-12T01:28:40.970Z,100728.23
2023-02-12T01:31:32.862Z,100731.32
2023-02-12T01:34:21.691Z,100728.59
2023-02-12T01:37:10.345Z,100724.67
2023-02-12T01:39:59.117Z,100726.69
2023-02-12T01:42:47.882Z,100727.02
2023-02-12T01:45:37.660Z,100727.05
2023-02-12T01:48:27.385Z,100729.35
2023-02-12T01:51:18.162Z,100732.84
2023-02-12T01:54:07.903Z,100738.30
2023-02-12T01:56:56.570Z,100735.49
2023-02-12T01:59:46.064Z,100742.23
2023-02-12T02:02:35.207Z,100745.81
2023-02-12T02:05:55.008Z,100746.98
2023-02-12T02:08:44.696Z,100754.69
2023-02-12T02:11:52.288Z,100758.60
2023-02-12T02:14:41.172Z,100763.90
2023-02-12T02:17:59.346Z,100763.80
2023-02-12T02:21:10.401Z,100763.63
2023-02-12T02:24:10.869Z,100772.20
2023-02-12T02:27:43.583Z,100776.49
2023-02-12T02:30:59.693Z,100784.71
2023-02-12T02:33:54.360Z,100783.60
2023-02-12T02:36:59.774Z,100789.41
2023-02-12T02:39:54.422Z,100791.01
2023-02-12T02:42:57.552Z,100801.69
2023-02-12T02:45:48.291Z,100808.62
2023-02-12T02:48:40.090Z,100809.17
2023-02-12T02:51:41.388Z,100815.78
2023-02-12T02:54:42.174Z,100821.88
2023-02-12T02:57:42.764Z,100830.91
2023-02-12T03:00:35.912Z,100836.58
2023-02-12T03:03:33.602Z,100838.19
2023-02-12T03:06:38.704Z,100841.81
2023-02-12T03:09:32.486Z,100848.30
2023-02-12T03:12:32.854Z,100857.46
2023-02-12T03:15:27.272Z,100864.16
2023-02-12T03:18:25.765Z,100867.76
2023-02-12T03:21:17.195Z,100875.30
2023-02-12T03:24:33.002Z,100879.83
2023-02-12T03:27:26.908Z,100891.34
2023-02-12T03:30:15.991Z,100890.46
2023-02-12T03:33:21.290Z,100896.14
2023-02-12T03:36:36.221Z,100902.76
2023-02-12T03:40:06.220Z,100900.90
2023-02-12T03:43:09.991Z,100906.65
2023-02-12T03:46:15.328Z,100909.84
2023-02-12T03:49:17.623Z,100917.16
2023-02-12T03:52:06.719Z,100935.19
2023-02-12T03:54:59.521Z,100938.09
2023-02-12T03:57:52.190Z,100948.63
2023-02-12T04:00:40.995Z,100958.73
2023-02-12T04:03:30.400Z,100960.45
2023-02-12T04:06:26.866Z,100960.14
2023-02-12T04:09:15.912Z,100968.78
2023-02-12T04:12:19.912Z,100974.26
2023-02-12T04:15:12.433Z,100982.39
2023-02-12T04:18:10.201Z,100995.81
2023-02-12T04:21:31.628Z,101015.70
2023-02-12T04:24:36.792Z,101016.77
2023-02-12T04:28:19.896Z,101028.09
2023-02-12T04:31:17.270Z,101035.54
2023-02-12T04:34:48.697Z,101051.02
2023-02-12T04:37:44.294Z,101064.77
2023-02-12T04:40:32.963Z,101067.47
2023-02-12T04:43:29.332Z,101068.38
2023-02-12T04:46:18.244Z,101086.02
2023-02-12T04:49:07.024Z,101089.81
2023-02-12T04:51:55.836Z,101109.64
2023-02-12T04:54:45.051Z,101115.80
2023-02-12T04:57:33.770Z,101124.57
2023-02-12T05:00:22.601Z,101137.36
2023-02-12T05:03:12.387Z,101143.58
2023-02-12T05:06:08.262Z,101155.08
2023-02-12T05:08:57.261Z,101166.80
2023-02-12T05:11:46.067Z,101173.23
2023-02-12T05:14:35.905Z,101184.48
2023-02-12T05:17:25.000Z,101195.69
2023-02-12T05:20:14.538Z,101202.80
2023-02-12T05:23:03.291Z,101214.80
2023-02-12T05:25:52.475Z,101227.64
2023-02-12T05:28:41.330Z,101239.13
2023-02-12T05:31:30.242Z,101240.23
2023-02-12T05:34:20.372Z,101244.45
2023-02-12T05:37:09.468Z,101252.02
2023-02-12T05:39:58.111Z,101255.48
2023-02-12T05:42:46.706Z,101264.23
2023-02-12T05:45:38.056Z,101267.92
2023-02-12T05:48:27.136Z,101277.66
2023-02-12T05:51:21.914Z,101285.61
2023-02-12T05:54:11.012Z,101293.84
2023-02-12T05:56:59.732Z,101309.48
2023-02-12T05:59:48.398Z,101315.77
2023-02-12T06:02:37.822Z,101312.61
2023-02-12T06:05:26.589Z,101317.39
2023-02-12T06:08:15.459Z,101323.34
2023-02-12T06:11:08.913Z,101319.89
2023-02-12T06:13:57.951Z,101322.61
2023-02-12T06:16:53.169Z,101322.86
2023-02-12T06:19:42.276Z,101332.63
2023-02-12T06:22:31.194Z,101345.97
2023-02-12T06:25:21.891Z,101353.86
2023-02-12T06:28:10.718Z,101363.02
2023-02-12T06:30:59.513Z,101371.27
2023-02-12T06:33:48.284Z,101379.09
2023-02-12T06:36:38.499Z,101381.58
2023-02-12T06:39:27.288Z,101400.69
2023-02-12T06:42:16.020Z,101405.67
2023-02-12T06:45:05.200Z,101408.38
2023-02-12T06:47:54.880Z,101419.13
2023-02-12T06:50:43.632Z,101415.00
2023-02-12T06:53:33.820Z,101421.35
2023-02-12T06:56:23.787Z,101421.63
2023-02-12T06:59:16.246Z,101423.36
2023-02-12T07:02:05.208Z,101429.39
2023-02-12T07:04:54.004Z,101428.33
2023-02-12T07:07:44.463Z,101436.30
2023-02-12T07:10:33.365Z,101430.67
2023-02-12T07:13:22.091Z,101436.04
2023-02-12T07:16:15.054Z,101450.08
2023-02-12T07:19:06.039Z,101452.70
2023-02-12T07:21:55.104Z,101466.64
2023-02-12T07:24:43.867Z,101469.17
2023-02-12T07:27:37.389Z,101469.37
2023-02-12T07:30:26.140Z,101476.52
2023-02-12T07:33:14.968Z,101487.12
2023-02-12T07:36:04.770Z,101483.42
2023-02-12T07:38:54.432Z,101486.51
2023-02-12T07:41:43.525Z,101501.38
2023-02-12T07:44:34.390Z,101511.18
2023-02-12T07:47:23.137Z,101519.23
2023-02-12T07:50:12.059Z,101508.33
2023-02-12T07:53:01.387Z,101522.14
2023-02-12T07:55:50.423Z,101528.48
2023-02-12T07:58:40.525Z,101527.03
2023-02-12T08:01:38.961Z,101532.18
2023-02-12T08:04:28.104Z,101544.73
2023-02-12T08:07:17.347Z,101540.35
2023-02-12T08:10:09.576Z,101546.55
2023-02-12T08:13:04.312Z,101544.08
2023-02-12T08:16:01.695Z,101551.46
2023-02-12T08:18:51.883Z,101553.04
2023-02-12T08:21:40.714Z,101562.23
2023-02-12T08:24:30.161Z,101567.67
2023-02-12T08:27:20.590Z,101569.73
2023-02-12T08:30:10.348Z,101578.23
2023-02-12T08:32:59.770Z,101581.12
2023-02-12T08:35:52.277Z,101582.96
2023-02-12T08:38:41.644Z,101587.08
2023-02-12T08:41:30.641Z,101590.80
2023-02-12T08:44:19.783Z,101600.73
2023-02-12T08:47:10.230Z,101608.23
2023-02-12T08:49:59.046Z,101612.26
2023-02-12T08:52:47.959Z,101619.55
2023-02-12T08:55:39.218Z,101624.87
2023-02-12T08:58:30.473Z,101631.15
2023-02-12T09:01:22.601Z,101635.20
2023-02-12T09:04:23.079Z,101630.26
2023-02-12T09:07:13.218Z,101635.64
2023-02-12T09:10:05.377Z,101636.77
2023-02-12T09:12:54.249Z,101644.38
2023-02-12T09:15:45.018Z,101655.27
2023-02-12T09:18:36.819Z,101659.12
2023-02-12T09:21:25.958Z,101661.56
2023-02-12T09:24:14.805Z,101662.94
2023-02-12T09:27:06.688Z,101672.54
2023-02-12T09:29:55.710Z,101678.20
2023-02-12T09:32:44.948Z,101684.36
2023-02-12T09:35:36.077Z,101680.27
2023-02-12T09:38:24.959Z,101684.66
2023-02-12T09:41:24.879Z,101679.73
2023-02-12T09:44:26.118Z,101668.56
2023-02-12T09:47:34.854Z,101661.61
2023-02-12T09:50:33.834Z,101656.16
2023-02-12T09:53:25.972Z,101652.94
2023-02-12T09:56:18.614Z,101655.05
2023-02-12T09:59:08.297Z,101655.60
2023-02-12T10:01:58.588Z,101663.70
2023-02-12T10:05:00.593Z,101658.17
2023-02-12T10:08:14.364Z,101663.93
2023-02-12T10:11:42.281Z,101664.35
2023-02-12T10:15:02.392Z,101667.27
2023-02-12T10:18:15.039Z,101663.36
2023-02-12T10:21:12.287Z,101664.69
2023-02-12T10:24:12.383Z,101668.83
2023-02-12T10:27:03.849Z,101673.87
2023-02-12T10:29:53.009Z,101670.22
2023-02-12T10:32:42.065Z,101668.95
2023-02-12T10:35:31.270Z,101669.89
2023-02-12T10:38:22.599Z,101667.83
2023-02-12T10:41:11.639Z,101667.23
2023-02-12T10:44:02.864Z,101667.32
2023-02-12T10:46:57.964Z,101665.03
2023-02-12T10:49:53.111Z,101666.28
2023-02-12T10:52:45.549Z,101668.99
2023-02-12T10:55:36.893Z,101670.13
2023-02-12T10:58:26.163Z,101668.02
2023-02-12T11:01:20.726Z,101666.89
2023-02-12T11:04:33.765Z,101661.02
2023-02-12T11:07:22.902Z,101666.89
2023-02-12T11:10:21.143Z,101666.60
2023-02-12T11:13:30.278Z,101672.14
2023-02-12T11:16:30.878Z,101668.64
2023-02-12T11:19:24.722Z,101674.51
2023-02-12T11:22:19.355Z,101675.17
2023-02-12T11:25:15.985Z,101681.88
2023-02-12T11:28:19.365Z,101676.41
2023-02-12T11:31:14.355Z,101680.90
2023-02-12T11:34:14.411Z,101680.73
2023-02-12T11:37:03.639Z,101689.16
2023-02-12T11:39:52.484Z,101685.83
2023-02-12T11:42:43.486Z,101688.34
2023-02-12T11:45:52.987Z,101687.38
2023-02-12T11:48:42.195Z,101689.50
2023-02-12T11:51:32.488Z,101686.45
2023-02-12T11:54:26.926Z,101677.17
2023-02-12T11:57:41.059Z,101685.05
2023-02-12T12:01:06.427Z,101678.71
2023-02-12T12:04:00.126Z,101678.95
2023-02-12T12:06:58.318Z,101689.06
2023-02-12T12:10:01.999Z,101684.89
2023-02-12T12:12:57.491Z,101684.92
2023-02-12T12:16:09.758Z,101690.23
2023-02-12T12:19:24.347Z,101684.65
2023-02-12T12:22:19.202Z,101680.38
2023-02-12T12:25:21.062Z,101680.91
2023-02-12T12:28:23.477Z,101687.58
2023-02-12T12:31:12.262Z,101683.08
2023-02-12T12:34:11.122Z,101691.75
2023-02-12T12:37:12.756Z,101693.58
2023-02-12T12:40:22.163Z,101694.46
2023-02-12T12:43:19.371Z,101700.02
2023-02-12T12:46:38.004Z,101699.15
2023-02-12T12:49:45.573Z,101703.39
2023-02-12T12:53:02.136Z,101704.03
2023-02-12T12:56:09.046Z,101698.55
2023-02-12T12:59:35.743Z,101698.10
2023-02-12T13:02:57.969Z,101702.31
2023-02-12T13:05:57.556Z,101696.10
2023-02-12T13:09:12.950Z,101698.01
2023-02-12T13:12:07.907Z,101700.30
2023-02-12T13:15:00.751Z,101696.73
2023-02-12T13:18:13.274Z,101705.86
2023-02-12T13:21:14.050Z,101707.06
2023-02-12T13:24:09.143Z,101704.86
2023-02-12T13:26:58.809Z,101708.75
2023-02-12T13:30:23.207Z,101707.24
2023-02-12T13:33:15.237Z,101706.27
2023-02-12T13:36:06.360Z,101712.93
2023-02-12T13:39:10.795Z,101717.48
2023-02-12T13:42:38.315Z,101726.27
2023-02-12T13:45:50.799Z,101736.79
2023-02-12T13:48:55.756Z,101738.73
2023-02-12T13:51:49.821Z,101735.22
2023-02-12T13:55:12.640Z,101744.69
2023-02-12T13:58:33.044Z,101743.83
2023-02-12T14:01:39.654Z,101745.92
2023-02-12T14:05:00.054Z,101751.35
2023-02-12T14:07:52.086Z,101760.54
2023-02-12T14:10:42.373Z,101766.14
2023-02-12T14:13:34.364Z,101771.95
2023-02-12T14:16:29.770Z,101767.09
2023-02-12T14:19:38.207Z,101769.83
2023-02-12T14:22:27.621Z,101779.90
2023-02-12T14:25:25.800Z,101784.57
2023-02-12T14:28:51.352Z,101787.06
2023-02-12T14:31:44.701Z,101785.46
2023-02-12T14:34:34.857Z,101785.20
2023-02-12T14:37:35.967Z,101795.38
2023-02-12T14:40:36.558Z,101799.58
2023-02-12T14:44:12.554Z,101804.22
2023-02-12T14:47:14.703Z,101809.98
2023-02-12T14:50:15.185Z,101813.04
2023-02-12T14:53:21.286Z,101820.55
2023-02-12T14:56:14.941Z,101821.63
2023-02-12T14:59:05.082Z,101821.48
2023-02-12T15:01:54.800Z,101833.15
2023-02-12T15:04:43.877Z,101835.34
2023-02-12T15:08:05.069Z,101842.38
2023-02-12T15:11:15.401Z,101838.80
2023-02-12T15:14:20.704Z,101844.23
2023-02-12T15:17:17.775Z,101843.66
2023-02-12T15:20:31.658Z,101841.73
2023-02-12T15:23:30.886Z,101848.77
2023-02-12T15:26:20.878Z,101852.77
2023-02-12T15:29:29.156Z,101859.16
2023-02-12T15:32:22.168Z,101865.90
2023-02-12T15:35:20.132Z,101873.74
2023-02-12T15:38:09.621Z,101881.42
2023-02-12T15:40:59.685Z,101884.77
2023-02-12T15:43:48.434Z,101890.55
2023-02-12T15:46:37.216Z,101894.28
2023-02-12T15:49:36.872Z,101896.75
2023-02-12T15:52:44.979Z,101906.47
2023-02-12T15:55:36.344Z,101906.76
2023-02-12T15:58:49.414Z,101908.91
2023-02-12T16:01:40.794Z,101917.45
2023-02-12T16:04:31.787Z,101917.11
2023-02-12T16:07:22.359Z,101925.63
2023-02-12T16:10:14.455Z,101930.51
2023-02-12T16:13:03.861Z,101928.63
2023-02-12T16:16:07.613Z,101934.52
2023-02-12T16:19:18.554Z,101935.44
2023-02-12T16:22:07.933Z,101946.48
2023-02-12T16:24:56.745Z,101948.24
2023-02-12T16:28:00.069Z,101951.08
2023-02-12T16:30:51.286Z,101958.62
2023-02-12T16:33:40.244Z,101957.52
2023-02-12T16:36:30.732Z,101959.63
2023-02-12T16:39:57.873Z,101959.81
2023-02-12T16:42:47.895Z,101956.70
2023-02-12T16:45:38.368Z,101958.27
2023-02-12T16:48:28.198Z,101962.15
2023-02-12T16:51:22.068Z,101966.49
2023-02-12T16:54:34.229Z,101963.05
2023-02-12T16:57:23.092Z,101968.83
2023-02-12T17:00:15.783Z,101966.42
2023-02-12T17:03:04.807Z,101974.48
2023-02-12T17:05:53.911Z,101971.83
2023-02-12T17:08:42.685Z,101974.43
2023-02-12T17:11:31.487Z,101973.82
2023-02-12T17:14:21.278Z,101977.10
2023-02-12T17:17:10.113Z,101983.58
2023-02-12T17:19:58.862Z,101989.04
2023-02-12T17:22:52.162Z,101998.81
2023-02-12T17:25:41.329Z,102002.73
2023-02-12T17:28:30.943Z,102004.17
2023-02-12T17:31:20.855Z,102007.02
2023-02-12T17:34:09.578Z,102010.35
2023-02-12T17:36:58.321Z,102013.61
2023-02-12T17:39:46.975Z,102012.00
2023-02-12T17:42:35.700Z,102010.67
2023-02-12T17:45:24.967Z,102011.68
2023-02-12T17:48:15.227Z,102012.97
2023-02-12T17:51:05.230Z,102016.60
2023-02-12T17:53:54.283Z,102015.70
2023-02-12T17:56:43.416Z,102023.19
2023-02-12T17:59:32.638Z,102024.80
2023-02-12T18:02:23.643Z,102023.40
2023-02-12T18:05:12.369Z,102024.84
2023-02-12T18:08:03.666Z,102026.92
2023-02-12T18:10:55.466Z,102032.28
2023-02-12T18:13:44.925Z,102040.23
2023-02-12T18:16:34.414Z,102047.46
2023-02-12T18:19:25.622Z,102046.90
2023-02-12T18:22:14.325Z,102057.02
2023-02-12T18:25:04.091Z,102060.81
2023-02-12T18:27:53.361Z,102063.42
2023-02-12T18:30:43.842Z,102065.69
2023-02-12T18:33:33.396Z,102070.84
2023-02-12T18:36:22.808Z,102073.22
2023-02-12T18:39:11.733Z,102075.42
2023-02-12T18:42:00.625Z,102076.23
2023-02-12T18:44:51.206Z,102073.77
2023-02-12T18:47:39.837Z,102071.40
2023-02-12T18:50:29.390Z,102072.86
2023-02-12T18:53:18.317Z,102075.34
2023-02-12T18:56:08.120Z,102084.11
2023-02-12T18:58:58.653Z,102087.52
2023-02-12T19:01:47.609Z,102090.40
2023-02-12T19:04:37.070Z,102090.32
2023-02-12T19:07:27.533Z,102099.45
2023-02-12T19:10:16.505Z,102095.70
2023-02-12T19:13:05.422Z,102096.16
2023-02-12T19:15:54.252Z,102100.20
2023-02-12T19:18:43.143Z,102100.58
2023-02-12T19:21:34.205Z,102104.09
2023-02-12T19:24:23.020Z,102105.70
2023-02-12T19:27:11.648Z,102114.11
2023-02-12T19:30:00.811Z,102105.76
2023-02-12T19:32:49.467Z,102110.45
2023-02-12T19:35:38.329Z,102114.86
2023-02-12T19:38:28.115Z,102123.43
2023-02-12T19:41:20.539Z,102121.52
2023-02-12T19:44:10.547Z,102130.09
2023-02-12T19:46:59.705Z,102129.80
2023-02-12T19:49:48.553Z,102131.66
2023-02-12T19:52:38.903Z,102133.98
2023-02-12T19:55:27.677Z,102133.33
2023-02-12T19:58:18.693Z,102130.02
2023-02-12T20:01:20.168Z,102130.95
2023-02-12T20:04:12.445Z,102127.84
2023-02-12T20:07:01.781Z,102126.89
2023-02-12T20:09:51.521Z,102124.37
2023-02-12T20:12:41.495Z,102120.98
2023-02-12T20:15:31.499Z,102125.52
2023-02-12T20:18:20.187Z,102139.09
2023-02-12T20:21:13.869Z,102142.33
2023-02-12T20:24:03.013Z,102140.20
2023-02-12T20:26:52.244Z,102148.16
2023-02-12T20:29:41.120Z,102149.81
2023-02-12T20:32:30.154Z,102151.40
2023-02-12T20:35:19.089Z,102153.36
2023-02-12T20:38:07.688Z,102150.95
2023-02-12T20:41:00.247Z,102149.32
2023-02-12T20:43:49.161Z,102150.76
2023-02-12T20:46:41.987Z,102149.61
2023-02-12T20:49:30.815Z,102147.34
2023-02-12T20:52:19.462Z,102148.05
2023-02-12T20:55:09.601Z,102154.66
2023-02-12T20:57:58.436Z,102153.38
2023-02-12T21:00:48.132Z,102149.35
2023-02-12T21:03:37.306Z,102149.94
2023-02-12T21:06:26.103Z,102155.25
2023-02-12T21:09:15.187Z,102151.73
2023-02-12T21:12:05.353Z,102153.23
2023-02-12T21:14:54.684Z,102150.61
2023-02-12T21:17:47.655Z,102148.99
2023-02-12T21:20:37.555Z,102148.41
2023-02-12T21:23:26.852Z,102152.78
2023-02-12T21:26:17.263Z,102156.34
2023-02-12T21:29:06.926Z,102159.95
2023-02-12T21:31:56.846Z,102161.04
2023-02-12T21:34:46.994Z,102166.81
2023-02-12T21:37:36.304Z,102177.73
2023-02-12T21:40:25.781Z,102175.34
2023-02-12T21:43:14.631Z,102174.52
2023-02-12T21:46:03.497Z,102179.92
2023-02-12T21:48:52.368Z,102177.28
2023-02-12T21:51:44.622Z,102174.48
2023-02-12T21:54:34.230Z,102172.58
2023-02-12T21:57:23.401Z,102174.46
2023-02-12T22:00:12.566Z,102177.98
2023-02-12T22:03:01.452Z,102179.52
2023-02-12T22:05:50.138Z,102180.71
2023-02-12T22:08:38.898Z,102177.63
2023-02-12T22:11:28.021Z,102176.85
2023-02-12T22:14:17.107Z,102179.35
2023-02-12T22:17:07.211Z,102182.20
2023-02-12T22:19:55.906Z,102184.77
2023-02-12T22:22:44.667Z,102179.15
2023-02-12T22:25:33.513Z,102176.21
2023-02-12T22:28:22.456Z,102170.80
2023-02-12T22:31:12.034Z,102167.20
2023-02-12T22:34:04.266Z,102163.11
2023-02-12T22:36:53.010Z,102159.77
2023-02-12T22:39:42.423Z,102156.67
2023-02-12T22:42:31.757Z,102154.56
2023-02-12T22:45:20.430Z,102155.50
2023-02-12T22:48:09.967Z,102155.16
2023-02-12T22:50:59.485Z,102161.40
2023-02-12T22:53:48.957Z,102162.85
2023-02-12T22:56:38.051Z,102167.01
2023-02-12T22:59:26.874Z,102171.63
2023-02-12T23:02:15.896Z,102167.26
2023-02-12T23:05:04.784Z,102173.19
2023-02-12T23:07:53.663Z,102175.95
2023-02-12T23:10:42.544Z,102170.70
2023-02-12T23:13:31.375Z,102169.81
2023-02-12T23:16:20.878Z,102171.35
2023-02-12T23:19:10.039Z,102168.30
2023-02-12T23:21:59.058Z,102166.44
2023-02-12T23:24:47.828Z,102172.66
2023-02-12T23:27:37.048Z,102177.98
2023-02-12T23:30:26.186Z,102178.66
2023-02-12T23:33:15.663Z,102180.67
2023-02-12T23:36:05.137Z,102178.77
2023-02-12T23:38:53.836Z,102183.48
2023-02-12T23:41:42.524Z,102178.30
2023-02-12T23:44:31.533Z,102176.95
2023-02-12T23:47:20.199Z,102180.61
2023-02-12T23:50:09.647Z,102174.27
2023-02-12T23:52:58.892Z,102169.13
2023-02-12T23:55:49.523Z,102167.96
2023-02-12T23:58:41.266Z,102164.33
